createdAt,value
2023-04-08T00:00:06.738Z,27.50
2023-04-08T00:03:02.379Z,29.00
2023-04-08T00:05:35.898Z,23.00
2023-04-08T00:08:08.749Z,24.40
2023-04-08T00:10:40.806Z,23.20
2023-04-08T00:13:13.463Z,24.90
2023-04-08T00:15:45.885Z,23.90
2023-04-08T00:18:19.610Z,23.30
2023-04-08T00:20:51.874Z,25.20
2023-04-08T00:23:24.110Z,29.40
2023-04-08T00:25:56.354Z,28.10
2023-04-08T00:28:28.687Z,26.40
2023-04-08T00:31:00.794Z,30.60
2023-04-08T00:33:36.721Z,32.20
2023-04-08T00:36:09.258Z,33.80
2023-04-08T00:38:41.495Z,30.70
2023-04-08T00:41:14.053Z,26.90
2023-04-08T00:43:46.211Z,26.00
2023-04-08T00:46:18.625Z,26.00
2023-04-08T00:48:51.458Z,29.70
2023-04-08T00:51:23.813Z,31.30
2023-04-08T00:53:56.049Z,28.10
2023-04-08T00:56:29.170Z,40.00
2023-04-08T00:59:02.333Z,32.80
2023-04-08T01:01:43.789Z,32.90
2023-04-08T01:04:27.915Z,38.90
2023-04-08T01:07:09.373Z,34.00
2023-04-08T01:09:46.846Z,32.60
2023-04-08T01:12:27.588Z,31.30
2023-04-08T01:15:02.716Z,33.80
2023-04-08T01:17:37.281Z,32.00
2023-04-08T01:20:14.440Z,32.50
2023-04-08T01:22:59.393Z,32.00
2023-04-08T01:25:34.572Z,35.10
2023-04-08T01:28:10.089Z,32.10
2023-04-08T01:30:43.882Z,29.00
2023-04-08T01:33:18.038Z,30.00
2023-04-08T01:35:52.383Z,27.30
2023-04-08T01:38:27.332Z,26.20
2023-04-08T01:41:00.511Z,29.20
2023-04-08T01:43:35.288Z,23.90
2023-04-08T01:46:13.091Z,24.10
2023-04-08T01:48:51.938Z,25.20
2023-04-08T01:51:26.838Z,28.90
2023-04-08T01:53:59.262Z,27.10
2023-04-08T01:56:34.262Z,27.20
2023-04-08T01:59:11.077Z,25.30
2023-04-08T02:01:45.845Z,27.90
2023-04-08T02:04:18.341Z,30.80
2023-04-08T02:06:51.693Z,31.00
2023-04-08T02:09:23.871Z,34.20
2023-04-08T02:11:57.129Z,34.90
2023-04-08T02:14:29.410Z,34.20
2023-04-08T02:17:07.731Z,34.70
2023-04-08T02:19:48.245Z,34.10
2023-04-08T02:22:31.092Z,43.70
2023-04-08T02:25:06.059Z,34.60
2023-04-08T02:27:40.717Z,37.30
2023-04-08T02:30:14.995Z,34.60
2023-04-08T02:32:48.633Z,34.30
2023-04-08T02:35:21.532Z,30.70
2023-04-08T02:37:54.005Z,31.50
2023-04-08T02:40:32.154Z,26.70
2023-04-08T02:43:04.467Z,26.50
2023-04-08T02:45:42.187Z,27.90
2023-04-08T02:48:14.829Z,28.50
2023-04-08T02:50:46.976Z,28.40
2023-04-08T02:53:19.474Z,26.00
2023-04-08T02:55:51.921Z,31.40
2023-04-08T02:58:23.982Z,29.80
2023-04-08T03:00:56.513Z,28.00
2023-04-08T03:03:29.960Z,27.20
2023-04-08T03:06:02.203Z,27.70
2023-04-08T03:08:34.308Z,27.50
2023-04-08T03:11:06.533Z,25.30
2023-04-08T03:13:38.979Z,26.30
2023-04-08T03:16:11.879Z,24.50
2023-04-08T03:18:44.088Z,20.30
2023-04-08T03:21:16.642Z,23.80
2023-04-08T03:23:48.772Z,25.10
2023-04-08T03:26:21.222Z,23.90
2023-04-08T03:28:53.718Z,23.00
2023-04-08T03:31:26.865Z,21.50
2023-04-08T03:33:58.991Z,25.80
2023-04-08T03:36:31.192Z,27.70
2023-04-08T03:39:03.958Z,23.40
2023-04-08T03:41:36.158Z,23.70
2023-04-08T03:44:08.416Z,21.10
2023-04-08T03:46:40.844Z,23.00
2023-04-08T03:49:13.026Z,24.00
2023-04-08T03:51:45.348Z,20.50
2023-04-08T03:54:17.487Z,21.90
2023-04-08T03:56:50.812Z,21.80
2023-04-08T03:59:23.196Z,25.30
2023-04-08T04:01:55.420Z,24.90
2023-04-08T04:04:27.927Z,27.40
2023-04-08T04:07:00.155Z,24.60
2023-04-08T04:09:32.269Z,23.70
2023-04-08T04:12:04.406Z,22.80
2023-04-08T04:14:36.607Z,21.20
2023-04-08T04:17:08.841Z,24.30
2023-04-08T04:19:40.947Z,24.40
2023-04-08T04:22:13.114Z,23.40
2023-04-08T04:24:49.991Z,24.30
2023-04-08T04:27:22.205Z,25.70
2023-04-08T04:29:54.382Z,25.70
2023-04-08T04:32:26.814Z,28.10
2023-04-08T04:34:58.967Z,40.50
2023-04-08T04:37:31.477Z,61.30
2023-04-08T04:40:03.590Z,62.10
2023-04-08T04:42:35.720Z,55.60
2023-04-08T04:45:09.533Z,37.00
2023-04-08T04:47:41.643Z,34.50
2023-04-08T04:50:14.373Z,31.80
2023-04-08T04:52:46.544Z,29.10
2023-04-08T04:55:18.762Z,27.50
2023-04-08T04:57:51.101Z,30.80
2023-04-08T05:00:23.286Z,29.80
2023-04-08T05:02:55.810Z,28.80
2023-04-08T05:05:28.228Z,30.60
2023-04-08T05:08:00.699Z,30.00
2023-04-08T05:10:33.066Z,29.50
2023-04-08T05:13:05.088Z,25.90
2023-04-08T05:15:38.019Z,29.00
2023-04-08T05:18:10.649Z,29.60
2023-04-08T05:20:42.860Z,36.20
2023-04-08T05:23:15.035Z,34.70
2023-04-08T05:25:47.042Z,31.90
2023-04-08T05:28:19.197Z,28.90
2023-04-08T05:30:53.484Z,24.70
2023-04-08T05:33:26.695Z,40.80
2023-04-08T05:35:59.020Z,36.90
2023-04-08T05:38:31.220Z,36.10
2023-04-08T05:41:03.310Z,26.90
2023-04-08T05:43:37.401Z,23.70
2023-04-08T05:46:12.710Z,24.00
2023-04-08T05:48:44.779Z,24.60
2023-04-08T05:51:18.936Z,27.30
2023-04-08T05:53:51.103Z,30.90
2023-04-08T05:56:23.266Z,25.40
2023-04-08T05:58:55.855Z,27.70
2023-04-08T06:01:28.284Z,23.80
2023-04-08T06:04:00.747Z,23.70
2023-04-08T06:06:33.464Z,45.10
2023-04-08T06:09:06.156Z,23.10
2023-04-08T06:11:38.318Z,21.10
2023-04-08T06:14:10.795Z,24.70
2023-04-08T06:16:43.085Z,23.20
2023-04-08T06:19:15.597Z,25.30
2023-04-08T06:21:47.746Z,39.20
2023-04-08T06:24:20.102Z,48.00
2023-04-08T06:26:53.340Z,50.10
2023-04-08T06:29:26.035Z,37.70
2023-04-08T06:31:58.364Z,26.20
2023-04-08T06:34:30.686Z,18.40
2023-04-08T06:37:03.069Z,26.00
2023-04-08T06:39:35.433Z,31.30
2023-04-08T06:42:07.981Z,25.20
2023-04-08T06:44:58.590Z,29.70
2023-04-08T06:47:31.201Z,46.80
2023-04-08T06:50:03.561Z,35.60
2023-04-08T06:52:35.748Z,26.10
2023-04-08T06:55:09.437Z,20.30
2023-04-08T06:57:42.315Z,23.70
2023-04-08T07:00:16.102Z,25.50
2023-04-08T07:02:48.584Z,22.10
2023-04-08T07:05:21.260Z,26.10
2023-04-08T07:07:53.521Z,22.60
2023-04-08T07:10:25.826Z,25.40
2023-04-08T07:12:58.382Z,25.20
2023-04-08T07:15:30.919Z,24.30
2023-04-08T07:18:04.843Z,23.10
2023-04-08T07:20:38.591Z,28.10
2023-04-08T07:23:10.922Z,28.60
2023-04-08T07:25:43.324Z,21.80
2023-04-08T07:28:15.790Z,24.20
2023-04-08T07:30:48.387Z,24.00
2023-04-08T07:33:20.644Z,19.00
2023-04-08T07:35:52.791Z,26.70
2023-04-08T07:38:25.590Z,23.70
2023-04-08T07:40:57.816Z,21.40
2023-04-08T07:43:30.026Z,21.20
2023-04-08T07:46:05.142Z,23.20
2023-04-08T07:48:37.748Z,19.90
2023-04-08T07:51:11.788Z,24.40
2023-04-08T07:53:44.854Z,18.30
2023-04-08T07:56:18.856Z,20.20
2023-04-08T07:58:52.899Z,20.50
2023-04-08T08:01:28.226Z,21.20
2023-04-08T08:04:00.958Z,16.70
2023-04-08T08:06:33.602Z,22.90
2023-04-08T08:09:05.942Z,22.60
2023-04-08T08:11:38.173Z,22.00
2023-04-08T08:14:11.975Z,21.20
2023-04-08T08:16:44.786Z,19.70
2023-04-08T08:19:17.078Z,18.70
2023-04-08T08:21:49.547Z,16.80
2023-04-08T08:24:21.775Z,16.00
2023-04-08T08:26:54.589Z,25.10
2023-04-08T08:29:27.035Z,19.10
2023-04-08T08:31:59.190Z,18.90
2023-04-08T08:34:31.957Z,17.40
2023-04-08T08:37:04.050Z,13.20
2023-04-08T08:39:36.615Z,16.90
2023-04-08T08:42:08.812Z,20.50
2023-04-08T08:44:41.521Z,26.60
2023-04-08T08:47:13.803Z,63.70
2023-04-08T08:49:46.356Z,133.60
2023-04-08T08:52:20.189Z,39.50
2023-04-08T08:55:01.463Z,31.00
2023-04-08T08:57:33.730Z,27.00
2023-04-08T09:00:06.528Z,16.30
2023-04-08T09:02:38.890Z,34.50
2023-04-08T09:05:12.087Z,19.30
2023-04-08T09:07:44.872Z,17.20
2023-04-08T09:10:16.990Z,19.70
2023-04-08T09:12:58.697Z,19.60
2023-04-08T09:15:31.363Z,68.20
2023-04-08T09:18:04.171Z,100.40
2023-04-08T09:20:36.576Z,41.70
2023-04-08T09:23:08.753Z,64.60
2023-04-08T09:25:41.131Z,49.90
2023-04-08T09:28:23.551Z,39.00
2023-04-08T09:30:56.824Z,15.30
2023-04-08T09:33:35.233Z,27.90
2023-04-08T09:36:08.415Z,13.90
2023-04-08T09:38:40.860Z,11.90
2023-04-08T09:41:17.086Z,13.00
2023-04-08T09:43:52.437Z,11.40
2023-04-08T09:46:33.999Z,14.30
2023-04-08T09:49:13.243Z,16.40
2023-04-08T09:51:58.297Z,14.60
2023-04-08T09:54:39.437Z,14.60
2023-04-08T09:57:23.944Z,11.10
2023-04-08T10:00:05.861Z,10.40
2023-04-08T10:02:51.240Z,10.90
2023-04-08T10:05:26.367Z,11.50
2023-04-08T10:07:59.635Z,11.60
2023-04-08T10:10:32.644Z,10.70
2023-04-08T10:13:05.050Z,11.70
2023-04-08T10:15:39.772Z,15.40
2023-04-08T10:18:35.379Z,14.80
2023-04-08T10:21:27.702Z,14.20
2023-04-08T10:24:06.378Z,11.50
2023-04-08T10:26:43.590Z,11.30
2023-04-08T10:29:44.269Z,21.30
2023-04-08T10:32:32.310Z,27.30
2023-04-08T10:35:04.669Z,32.50
2023-04-08T10:37:37.319Z,13.20
2023-04-08T10:40:20.150Z,10.60
2023-04-08T10:42:57.638Z,12.90
2023-04-08T10:45:30.073Z,11.60
2023-04-08T10:48:14.923Z,10.40
2023-04-08T10:50:54.250Z,8.10
2023-04-08T10:53:34.164Z,9.10
2023-04-08T10:56:13.524Z,9.00
2023-04-08T10:58:52.834Z,10.80
2023-04-08T11:01:25.139Z,10.10
2023-04-08T11:03:57.865Z,8.00
2023-04-08T11:06:30.876Z,14.40
2023-04-08T11:09:05.649Z,10.00
2023-04-08T11:11:38.290Z,8.00
2023-04-08T11:14:10.565Z,17.70
2023-04-08T11:16:43.849Z,16.40
2023-04-08T11:19:17.083Z,27.40
2023-04-08T11:21:49.390Z,21.00
2023-04-08T11:24:22.884Z,26.60
2023-04-08T11:26:55.333Z,21.50
2023-04-08T11:29:28.180Z,22.30
2023-04-08T11:32:00.974Z,23.50
2023-04-08T11:34:33.348Z,21.50
2023-04-08T11:37:05.507Z,30.10
2023-04-08T11:39:42.557Z,21.80
2023-04-08T11:42:29.932Z,12.50
2023-04-08T11:45:02.175Z,12.90
2023-04-08T11:47:37.999Z,13.60
2023-04-08T11:50:11.862Z,15.90
2023-04-08T11:52:48.966Z,16.00
2023-04-08T11:55:28.267Z,13.20
2023-04-08T11:58:06.265Z,12.40
2023-04-08T12:00:39.772Z,12.20
2023-04-08T12:03:13.245Z,13.40
2023-04-08T12:05:46.616Z,16.30
2023-04-08T12:08:19.118Z,15.00
2023-04-08T12:10:51.652Z,18.00
2023-04-08T12:13:23.927Z,14.70
2023-04-08T12:15:56.655Z,21.80
2023-04-08T12:18:28.923Z,19.10
2023-04-08T12:21:01.218Z,30.50
2023-04-08T12:23:33.358Z,18.00
2023-04-08T12:26:05.812Z,18.00
2023-04-08T12:28:37.958Z,21.90
2023-04-08T12:31:10.430Z,34.60
2023-04-08T12:33:42.612Z,29.50
2023-04-08T12:36:14.730Z,19.30
2023-04-08T12:38:47.198Z,36.40
2023-04-08T12:41:19.555Z,27.50
2023-04-08T12:43:51.890Z,21.60
2023-04-08T12:46:24.226Z,24.30
2023-04-08T12:49:03.668Z,22.80
2023-04-08T12:51:36.889Z,19.30
2023-04-08T12:54:09.319Z,16.70
2023-04-08T12:56:43.362Z,17.50
2023-04-08T12:59:15.766Z,15.30
2023-04-08T13:01:48.005Z,18.10
2023-04-08T13:04:21.096Z,15.10
2023-04-08T13:06:53.241Z,15.20
2023-04-08T13:09:25.432Z,16.50
2023-04-08T13:11:58.428Z,14.30
2023-04-08T13:14:30.812Z,16.10
2023-04-08T13:17:03.369Z,16.60
2023-04-08T13:19:35.813Z,23.00
2023-04-08T13:22:07.949Z,19.10
2023-04-08T13:24:40.056Z,22.40
2023-04-08T13:27:12.196Z,19.80
2023-04-08T13:29:44.222Z,17.30
2023-04-08T13:32:16.476Z,14.90
2023-04-08T13:34:48.752Z,18.00
2023-04-08T13:37:20.857Z,19.60
2023-04-08T13:39:52.984Z,21.50
2023-04-08T13:42:25.048Z,24.30
2023-04-08T13:44:57.334Z,16.60
2023-04-08T13:47:29.650Z,15.70
2023-04-08T13:50:02.369Z,19.40
2023-04-08T13:52:34.554Z,19.30
2023-04-08T13:55:07.768Z,28.20
2023-04-08T13:57:40.392Z,22.10
2023-04-08T14:00:14.639Z,20.10
2023-04-08T14:02:47.450Z,16.60
2023-04-08T14:05:20.268Z,17.40
2023-04-08T14:07:52.481Z,20.60
2023-04-08T14:10:25.155Z,23.50
2023-04-08T14:12:57.778Z,44.10
2023-04-08T14:15:30.223Z,41.10
2023-04-08T14:18:02.724Z,50.10
2023-04-08T14:20:35.678Z,41.60
2023-04-08T14:23:07.953Z,60.20
2023-04-08T14:25:40.322Z,59.90
2023-04-08T14:28:12.719Z,52.00
2023-04-08T14:30:44.834Z,43.90
2023-04-08T14:33:17.755Z,36.00
2023-04-08T14:35:49.911Z,38.10
2023-04-08T14:38:23.337Z,39.10
2023-04-08T14:40:55.911Z,39.00
2023-04-08T14:43:28.203Z,42.80
2023-04-08T14:46:01.650Z,27.60
2023-04-08T14:48:34.225Z,34.10
2023-04-08T14:51:06.846Z,30.40
2023-04-08T14:53:39.025Z,28.80
2023-04-08T14:56:12.176Z,28.70
2023-04-08T14:58:44.405Z,28.80
2023-04-08T15:01:16.699Z,29.20
2023-04-08T15:03:49.373Z,27.20
2023-04-08T15:06:23.329Z,27.80
2023-04-08T15:08:55.827Z,25.60
2023-04-08T15:11:28.078Z,18.70
2023-04-08T15:14:00.534Z,94.20
2023-04-08T15:16:32.954Z,34.50
2023-04-08T15:19:06.122Z,22.50
2023-04-08T15:21:38.262Z,53.00
2023-04-08T15:24:10.837Z,43.90
2023-04-08T15:26:43.113Z,26.80
2023-04-08T15:29:15.699Z,17.80
2023-04-08T15:31:48.589Z,30.60
2023-04-08T15:34:21.148Z,29.40
2023-04-08T15:36:53.625Z,25.40
2023-04-08T15:39:26.468Z,28.00
2023-04-08T15:41:58.794Z,26.80
2023-04-08T15:44:33.815Z,18.40
2023-04-08T15:47:06.311Z,23.10
2023-04-08T15:49:39.115Z,20.40
2023-04-08T15:52:11.959Z,27.60
2023-04-08T15:54:45.079Z,31.90
2023-04-08T15:57:18.241Z,34.10
2023-04-08T15:59:50.516Z,39.60
2023-04-08T16:02:22.866Z,23.80
2023-04-08T16:04:55.975Z,22.90
2023-04-08T16:07:28.466Z,30.80
2023-04-08T16:10:01.862Z,38.10
2023-04-08T16:12:34.529Z,35.20
2023-04-08T16:15:13.893Z,28.40
2023-04-08T16:17:51.872Z,38.40
2023-04-08T16:20:24.888Z,29.50
2023-04-08T16:22:57.150Z,40.40
2023-04-08T16:25:29.704Z,32.30
2023-04-08T16:28:01.998Z,29.00
2023-04-08T16:30:36.454Z,65.10
2023-04-08T16:33:08.675Z,71.20
2023-04-08T16:35:41.238Z,49.70
2023-04-08T16:38:15.228Z,37.70
2023-04-08T16:40:47.742Z,43.50
2023-04-08T16:43:20.787Z,63.10
2023-04-08T16:45:53.617Z,48.90
2023-04-08T16:48:26.398Z,79.50
2023-04-08T16:50:58.766Z,87.30
2023-04-08T16:53:31.040Z,61.10
2023-04-08T16:56:03.628Z,80.10
2023-04-08T16:58:36.223Z,56.50
2023-04-08T17:01:14.189Z,75.10
2023-04-08T17:03:48.029Z,79.50
2023-04-08T17:06:20.482Z,76.90
2023-04-08T17:08:53.190Z,66.20
2023-04-08T17:11:26.087Z,64.30
2023-04-08T17:13:58.881Z,56.10
2023-04-08T17:16:31.354Z,56.50
2023-04-08T17:19:03.694Z,66.50
2023-04-08T17:21:36.178Z,109.10
2023-04-08T17:24:08.886Z,125.70
2023-04-08T17:26:43.582Z,108.10
2023-04-08T17:29:15.874Z,79.90
2023-04-08T17:31:48.232Z,73.00
2023-04-08T17:34:20.654Z,61.20
2023-04-08T17:36:53.585Z,51.50
2023-04-08T17:39:26.366Z,93.00
2023-04-08T17:41:58.784Z,133.00
2023-04-08T17:44:31.930Z,175.40
2023-04-08T17:47:04.353Z,174.60
2023-04-08T17:49:36.780Z,137.80
2023-04-08T17:52:09.569Z,139.80
2023-04-08T17:54:42.012Z,165.40
2023-04-08T17:57:14.479Z,193.40
2023-04-08T17:59:46.788Z,144.40
2023-04-08T18:02:19.218Z,165.60
2023-04-08T18:04:52.590Z,152.80
2023-04-08T18:07:25.091Z,210.60
2023-04-08T18:09:57.329Z,215.40
2023-04-08T18:12:30.728Z,299.60
2023-04-08T18:15:03.328Z,235.90
2023-04-08T18:17:37.530Z,300.70
2023-04-08T18:20:11.516Z,168.60
2023-04-08T18:22:43.979Z,151.50
2023-04-08T18:25:16.518Z,74.10
2023-04-08T18:27:48.758Z,90.20
2023-04-08T18:30:20.916Z,54.60
2023-04-08T18:32:53.194Z,44.20
2023-04-08T18:35:27.102Z,46.60
2023-04-08T18:37:59.489Z,47.20
2023-04-08T18:40:31.656Z,42.10
2023-04-08T18:43:05.158Z,36.40
2023-04-08T18:45:37.555Z,44.20
2023-04-08T18:48:12.395Z,52.10
2023-04-08T18:50:46.055Z,44.10
2023-04-08T18:53:18.262Z,42.60
2023-04-08T18:55:51.395Z,59.90
2023-04-08T18:58:24.077Z,68.90
2023-04-08T19:00:56.733Z,100.60
2023-04-08T19:03:30.538Z,111.70
2023-04-08T19:06:08.047Z,73.50
2023-04-08T19:08:40.197Z,90.10
2023-04-08T19:11:12.559Z,90.20
2023-04-08T19:13:44.677Z,111.00
2023-04-08T19:16:17.199Z,123.90
2023-04-08T19:18:49.404Z,118.40
2023-04-08T19:21:21.946Z,105.90
2023-04-08T19:23:54.484Z,94.70
2023-04-08T19:26:27.033Z,119.50
2023-04-08T19:28:59.636Z,116.60
2023-04-08T19:31:31.967Z,108.70
2023-04-08T19:34:04.475Z,90.80
2023-04-08T19:36:37.289Z,77.90
2023-04-08T19:39:09.628Z,65.40
2023-04-08T19:41:42.330Z,95.20
2023-04-08T19:44:15.133Z,90.40
2023-04-08T19:46:47.937Z,78.10
2023-04-08T19:49:21.895Z,99.70
2023-04-08T19:51:54.287Z,81.70
2023-04-08T19:54:26.653Z,55.80
2023-04-08T19:56:59.623Z,51.90
2023-04-08T19:59:31.895Z,62.10
2023-04-08T20:02:05.007Z,72.50
2023-04-08T20:04:37.634Z,68.40
2023-04-08T20:07:09.926Z,57.70
2023-04-08T20:09:42.392Z,58.80
2023-04-08T20:12:14.673Z,73.20
2023-04-08T20:14:47.462Z,63.50
2023-04-08T20:17:20.995Z,71.10
2023-04-08T20:19:53.430Z,66.60
2023-04-08T20:22:25.813Z,80.30
2023-04-08T20:24:59.613Z,79.00
2023-04-08T20:27:31.885Z,60.10
2023-04-08T20:30:04.458Z,50.60
2023-04-08T20:32:36.697Z,53.00
2023-04-08T20:35:09.635Z,44.30
2023-04-08T20:37:43.368Z,51.40
2023-04-08T20:40:18.222Z,48.50
2023-04-08T20:42:50.766Z,38.30
2023-04-08T20:45:23.320Z,33.40
2023-04-08T20:47:55.850Z,30.40
2023-04-08T20:50:28.711Z,35.60
2023-04-08T20:53:01.040Z,33.90
2023-04-08T20:55:33.592Z,32.10
2023-04-08T20:58:07.759Z,31.60
2023-04-08T21:00:40.546Z,28.40
2023-04-08T21:03:13.212Z,26.40
2023-04-08T21:05:46.957Z,27.20
2023-04-08T21:08:19.646Z,27.60
2023-04-08T21:10:52.480Z,27.10
2023-04-08T21:13:24.944Z,21.60
2023-04-08T21:15:57.457Z,22.90
2023-04-08T21:18:29.630Z,24.00
2023-04-08T21:21:01.966Z,24.30
2023-04-08T21:23:34.749Z,23.20
2023-04-08T21:26:11.292Z,22.90
2023-04-08T21:28:44.193Z,23.40
2023-04-08T21:31:16.838Z,23.30
2023-04-08T21:33:49.564Z,21.70
2023-04-08T21:36:21.891Z,21.60
2023-04-08T21:38:54.135Z,20.10
2023-04-08T21:41:28.410Z,20.00
2023-04-08T21:44:03.038Z,22.60
2023-04-08T21:46:35.578Z,22.20
2023-04-08T21:49:08.157Z,20.70
2023-04-08T21:51:41.094Z,22.10
2023-04-08T21:54:13.677Z,20.70
2023-04-08T21:56:45.946Z,25.40
2023-04-08T21:59:19.362Z,24.40
2023-04-08T22:01:51.618Z,25.40
2023-04-08T22:04:27.979Z,26.50
2023-04-08T22:07:00.247Z,22.80
2023-04-08T22:09:32.660Z,22.90
2023-04-08T22:12:05.149Z,26.20
2023-04-08T22:14:37.380Z,22.80
2023-04-08T22:17:09.614Z,21.50
2023-04-08T22:19:41.927Z,32.80
2023-04-08T22:22:14.021Z,27.00
2023-04-08T22:24:46.151Z,24.00
2023-04-08T22:27:18.495Z,35.50
2023-04-08T22:29:50.841Z,41.30
2023-04-08T22:32:23.013Z,45.20
2023-04-08T22:34:55.796Z,39.00
2023-04-08T22:37:28.123Z,35.00
2023-04-08T22:40:02.576Z,40.70
2023-04-08T22:42:34.918Z,59.00
2023-04-08T22:45:08.533Z,47.00
2023-04-08T22:47:41.353Z,38.80
2023-04-08T22:50:14.035Z,33.10
2023-04-08T22:52:46.163Z,32.70
2023-04-08T22:55:18.669Z,35.10
2023-04-08T22:57:50.743Z,28.10
2023-04-08T23:00:23.598Z,30.80
2023-04-08T23:02:57.947Z,29.80
2023-04-08T23:05:30.836Z,32.00
2023-04-08T23:08:03.066Z,33.80
2023-04-08T23:10:35.532Z,30.80
2023-04-08T23:13:07.700Z,31.20
2023-04-08T23:15:39.816Z,29.40
2023-04-08T23:18:11.866Z,36.10
2023-04-08T23:20:47.732Z,35.00
2023-04-08T23:23:19.884Z,49.60
2023-04-08T23:25:54.312Z,47.70
2023-04-08T23:28:27.680Z,46.20
2023-04-08T23:31:00.112Z,43.70
2023-04-08T23:33:32.218Z,41.70
2023-04-08T23:36:07.680Z,42.50
2023-04-08T23:38:40.130Z,36.10
2023-04-08T23:41:12.234Z,31.40
2023-04-08T23:43:44.290Z,29.60
2023-04-08T23:46:16.941Z,31.40
2023-04-08T23:48:49.208Z,34.10
2023-04-08T23:51:21.661Z,32.80
2023-04-08T23:53:53.770Z,35.90
2023-04-08T23:56:26.354Z,30.90
2023-04-08T23:58:58.510Z,32.70
